Time;durP1;ratioP1;P1;durP2;ratioP2;P2;SDS_P1;SDS_P2;PMS_P1;PMS_P2;Temp;Humidity;BMP_temperature;BMP_pressure;BME280_temperature;BME280_humidity;BME280_pressure;Samples;Min_cycle;Max_cycle;Signal;HPM_P1;HPM_P2
2023/11/23 00:00:42;;;;;;;1.90;0.70;;;;;;;2.50;80.22;101455.53;5053286;28;20458;-70
2023/11/23 00:03:09;;;;;;;4.97;1.80;;;;;;;2.56;80.07;101438.59;5053488;28;20529;-70
2023/11/23 00:05:37;;;;;;;2.70;1.50;;;;;;;2.57;79.92;101439.41;5053053;28;20450;-70
2023/11/23 00:08:04;;;;;;;1.93;0.63;;;;;;;2.57;80.27;101415.31;5052759;28;20458;-70
2023/11/23 00:10:31;;;;;;;2.30;1.20;;;;;;;2.59;80.31;101414.06;5053185;28;20468;-69
2023/11/23 00:12:58;;;;;;;2.00;0.67;;;;;;;2.64;78.99;101394.66;5054285;28;20516;-70
2023/11/23 00:15:24;;;;;;;2.53;1.10;;;;;;;2.63;79.13;101372.47;5056765;28;20533;-70
2023/11/23 00:17:52;;;;;;;5.87;1.30;;;;;;;2.62;79.87;101367.34;5057005;28;20470;-70
2023/11/23 00:20:19;;;;;;;4.93;2.17;;;;;;;2.61;79.61;101358.50;5056492;28;20961;-70
2023/11/23 00:22:47;;;;;;;2.30;1.07;;;;;;;2.64;79.52;101357.22;5056678;28;20495;-70
2023/11/23 00:25:14;;;;;;;4.00;1.30;;;;;;;2.63;80.01;101356.41;5056378;28;20957;-70
2023/11/23 00:27:40;;;;;;;2.50;1.17;;;;;;;2.66;80.23;101331.09;5056956;28;20442;-70
2023/11/23 00:30:08;;;;;;;4.37;0.63;;;;;;;2.68;80.44;101331.66;5056634;28;20589;-70
2023/11/23 00:32:35;;;;;;;4.30;1.47;;;;;;;2.68;80.55;101337.81;5056955;28;20863;-70
2023/11/23 00:35:01;;;;;;;2.50;1.10;;;;;;;2.75;79.91;101322.50;5056361;28;20580;-71
2023/11/23 00:37:31;;;;;;;2.70;0.90;;;;;;;2.77;79.45;101325.72;5056557;28;20442;-70
2023/11/23 00:39:59;;;;;;;2.17;0.87;;;;;;;2.81;80.04;101330.63;5056470;28;20441;-70
2023/11/23 00:42:26;;;;;;;4.67;2.00;;;;;;;2.85;79.79;101315.75;5056451;28;20441;-70
2023/11/23 00:44:52;;;;;;;4.07;2.30;;;;;;;2.89;79.45;101312.38;5056321;28;21008;-70
2023/11/23 00:47:19;;;;;;;1.93;0.63;;;;;;;2.88;79.94;101300.06;5056390;28;20448;-70
2023/11/23 00:49:46;;;;;;;3.33;1.70;;;;;;;2.92;79.51;101297.72;5056251;28;20442;-70
2023/11/23 00:52:12;;;;;;;3.30;1.17;;;;;;;2.99;79.65;101293.06;5056349;28;20438;-70
2023/11/23 00:54:39;;;;;;;3.67;1.47;;;;;;;3.01;80.21;101282.94;5056133;28;20490;-70
2023/11/23 00:57:07;;;;;;;2.00;0.70;;;;;;;3.08;79.30;101280.97;5056458;28;20444;-70
2023/11/23 00:59:34;;;;;;;2.10;1.07;;;;;;;3.11;79.72;101285.03;5056449;28;20453;-70
2023/11/23 01:02:01;;;;;;;2.37;0.90;;;;;;;3.14;79.45;101282.69;5055781;28;20500;-70
2023/11/23 01:04:28;;;;;;;2.47;1.00;;;;;;;3.21;78.60;101287.94;5055624;28;20462;-70
2023/11/23 01:06:55;;;;;;;2.77;0.70;;;;;;;3.20;79.72;101297.84;5056041;28;20446;-70
2023/11/23 01:09:22;;;;;;;2.10;0.70;;;;;;;3.24;79.60;101299.00;5055623;28;20458;-70
2023/11/23 01:11:50;;;;;;;2.43;1.10;;;;;;;3.27;79.38;101271.72;5055945;28;20533;-70
2023/11/23 01:14:19;;;;;;;2.00;0.60;;;;;;;3.42;77.56;101260.53;5055654;28;20535;-71
2023/11/23 01:16:46;;;;;;;2.00;0.80;;;;;;;3.45;77.80;101267.28;5055931;28;20438;-70
2023/11/23 01:19:13;;;;;;;2.03;0.73;;;;;;;3.44;78.68;101255.75;5055801;28;20949;-70
2023/11/23 01:21:40;;;;;;;3.30;0.87;;;;;;;3.49;78.01;101265.75;5055827;28;20461;-70
2023/11/23 01:24:08;;;;;;;1.90;0.53;;;;;;;3.59;77.53;101244.56;5054804;28;20557;-70
2023/11/23 01:26:34;;;;;;;3.33;1.00;;;;;;;3.66;77.06;101257.78;5055974;28;20441;-70
2023/11/23 01:29:01;;;;;;;1.97;0.57;;;;;;;3.70;76.68;101242.88;5055570;28;20462;-70
2023/11/23 01:31:30;;;;;;;3.07;1.60;;;;;;;3.72;77.69;101246.94;5055717;28;20445;-70
2023/11/23 01:33:57;;;;;;;2.00;0.60;;;;;;;3.80;77.33;101243.06;5055704;28;20466;-70
2023/11/23 01:36:24;;;;;;;2.00;0.60;;;;;;;3.82;77.51;101234.78;5055475;28;20485;-70
2023/11/23 01:38:50;;;;;;;2.80;1.23;;;;;;;3.85;76.88;101239.66;5056007;28;20536;-69
2023/11/23 01:41:17;;;;;;;1.90;0.50;;;;;;;3.87;77.33;101237.56;5055439;28;20517;-70
2023/11/23 01:43:45;;;;;;;1.70;0.30;;;;;;;3.94;77.28;101228.34;5055381;28;20885;-70
2023/11/23 01:46:12;;;;;;;2.43;0.83;;;;;;;4.01;76.95;101233.53;5055758;28;20541;-70
2023/11/23 01:48:41;;;;;;;2.30;0.77;;;;;;;4.01;77.61;101222.81;5055695;28;20536;-70
2023/11/23 01:51:09;;;;;;;4.50;2.20;;;;;;;4.07;77.59;101224.50;5055337;28;20480;-70
2023/11/23 01:53:36;;;;;;;2.93;1.37;;;;;;;4.09;77.67;101218.94;5055084;28;20497;-69
2023/11/23 01:56:04;;;;;;;2.00;0.70;;;;;;;4.16;77.70;101217.72;5055071;28;20513;-70
2023/11/23 01:58:30;;;;;;;2.20;0.80;;;;;;;4.23;77.30;101212.19;5055175;28;20434;-70
2023/11/23 02:00:58;;;;;;;2.60;0.60;;;;;;;4.22;77.97;101203.34;5054833;28;20991;-70
2023/11/23 02:03:25;;;;;;;1.90;0.60;;;;;;;4.26;77.98;101204.47;5055085;28;20470;-70
2023/11/23 02:05:53;;;;;;;2.87;0.93;;;;;;;4.30;78.63;101204.81;5054705;28;20494;-70
2023/11/23 02:08:19;;;;;;;3.13;0.80;;;;;;;4.31;78.61;101195.69;5054907;28;20446;-70
2023/11/23 02:10:46;;;;;;;3.17;2.00;;;;;;;4.37;79.13;101175.13;5055096;28;20480;-70
2023/11/23 02:13:12;;;;;;;2.00;0.77;;;;;;;4.41;78.91;101203.09;5055293;28;20474;-70
2023/11/23 02:15:40;;;;;;;1.90;0.60;;;;;;;4.42;79.05;101185.94;5054592;28;20568;-70
2023/11/23 02:18:07;;;;;;;2.30;0.53;;;;;;;4.45;79.46;101158.63;5054431;28;20864;-70
2023/11/23 02:20:34;;;;;;;2.63;0.87;;;;;;;4.53;79.59;101166.25;5054677;28;20442;-71
2023/11/23 02:23:02;;;;;;;2.03;0.53;;;;;;;4.70;80.27;101160.88;5054641;28;20442;-70
2023/11/23 02:25:30;;;;;;;2.10;0.60;;;;;;;4.76;80.60;101178.66;5055392;28;20442;-70
2023/11/23 02:27:57;;;;;;;2.67;1.47;;;;;;;4.86;80.47;101169.94;5055279;28;20852;-70
2023/11/23 02:30:24;;;;;;;2.10;0.83;;;;;;;4.89;80.68;101158.69;5054512;28;20525;-70
2023/11/23 02:32:51;;;;;;;1.80;0.50;;;;;;;5.00;79.58;101169.34;5054625;28;20529;-70
2023/11/23 02:35:19;;;;;;;2.17;0.93;;;;;;;5.07;79.31;101163.75;5054317;28;20485;-70
2023/11/23 02:37:46;;;;;;;1.90;0.50;;;;;;;5.10;78.97;101157.91;5054424;28;20446;-70
2023/11/23 02:40:13;;;;;;;2.47;0.97;;;;;;;5.17;79.23;101155.81;5054542;28;20433;-70
2023/11/23 02:42:41;;;;;;;3.13;0.70;;;;;;;5.17;79.57;101158.50;5054518;28;20529;-70
2023/11/23 02:45:08;;;;;;;1.80;0.40;;;;;;;5.22;79.55;101155.91;5054501;28;20455;-70
2023/11/23 02:47:35;;;;;;;2.53;0.70;;;;;;;5.23;80.42;101141.41;5054594;28;20517;-71
2023/11/23 02:50:03;;;;;;;2.63;0.60;;;;;;;5.36;79.14;101123.25;5054696;28;20442;-70
2023/11/23 02:52:29;;;;;;;4.60;0.90;;;;;;;5.37;79.65;101136.44;5053994;28;20443;-70
2023/11/23 02:54:56;;;;;;;1.97;0.60;;;;;;;5.39;80.14;101134.31;5053990;28;20524;-70
2023/11/23 02:57:23;;;;;;;2.57;0.80;;;;;;;5.42;80.37;101135.69;5054446;28;20525;-71
2023/11/23 02:59:51;;;;;;;1.90;0.60;;;;;;;5.47;79.86;101125.81;5054233;28;20438;-70
2023/11/23 03:02:18;;;;;;;2.83;0.80;;;;;;;5.48;80.28;101131.97;5054191;28;20442;-70
2023/11/23 03:04:45;;;;;;;2.37;0.63;;;;;;;5.50;80.68;101130.69;5053822;28;20454;-70
2023/11/23 03:07:11;;;;;;;2.10;0.80;;;;;;;5.56;80.29;101118.91;5053887;28;20438;-70
2023/11/23 03:09:38;;;;;;;2.20;0.90;;;;;;;5.55;80.73;101111.09;5053868;28;20452;-70
2023/11/23 03:12:05;;;;;;;2.63;0.80;;;;;;;5.58;80.56;101113.28;5053958;28;20438;-70
2023/11/23 03:14:33;;;;;;;2.27;0.70;;;;;;;5.57;80.89;101114.34;5053679;28;20526;-70
2023/11/23 03:17:01;;;;;;;1.90;0.50;;;;;;;5.59;81.00;101104.16;5054317;28;20532;-70
2023/11/23 03:19:27;;;;;;;2.50;0.80;;;;;;;5.59;81.04;101098.78;5053886;28;20446;-70
2023/11/23 03:21:54;;;;;;;3.80;0.90;;;;;;;5.57;81.69;101096.34;5054187;28;20884;-70
2023/11/23 03:24:21;;;;;;;2.30;0.80;;;;;;;5.64;81.40;101096.13;5053457;28;20633;-70
2023/11/23 03:26:47;;;;;;;1.80;0.40;;;;;;;5.63;81.65;101082.97;5053330;28;21012;-70
2023/11/23 03:29:14;;;;;;;2.30;0.90;;;;;;;5.65;82.03;101086.19;5054059;28;20529;-70
2023/11/23 03:31:41;;;;;;;2.53;1.03;;;;;;;5.67;81.82;101076.03;5053844;28;20454;-70
2023/11/23 03:34:09;;;;;;;2.37;0.77;;;;;;;5.67;82.35;101082.19;5053391;28;20464;-70
2023/11/23 03:36:36;;;;;;;2.10;0.60;;;;;;;5.64;82.92;101074.63;5053657;28;20482;-70
2023/11/23 03:39:02;;;;;;;1.87;0.57;;;;;;;5.64;83.17;101073.84;5053401;28;20442;-70
2023/11/23 03:41:29;;;;;;;3.97;0.87;;;;;;;5.62;83.78;101068.69;5053349;28;20442;-70
2023/11/23 03:43:57;;;;;;;2.33;0.60;;;;;;;5.64;84.06;101055.03;5053492;28;20494;-70
2023/11/23 03:46:24;;;;;;;1.90;0.47;;;;;;;5.65;84.15;101070.88;5053074;28;20434;-70
2023/11/23 03:48:50;;;;;;;1.93;0.60;;;;;;;5.67;84.10;101058.00;5056792;28;20867;-70
2023/11/23 03:51:18;;;;;;;2.37;0.67;;;;;;;5.73;84.13;101051.59;5057408;28;20814;-70
2023/11/23 03:53:45;;;;;;;1.80;0.43;;;;;;;5.68;85.10;101048.06;5057487;28;20490;-70
2023/11/23 03:56:15;;;;;;;2.37;0.60;;;;;;;5.74;85.12;101047.84;5057569;28;20554;-70
2023/11/23 03:58:42;;;;;;;4.00;1.20;;;;;;;5.75;85.17;101052.13;5057723;28;20453;-70
2023/11/23 04:01:09;;;;;;;2.30;0.73;;;;;;;5.74;85.91;101041.66;5057500;28;20525;-71
2023/11/23 04:03:36;;;;;;;2.00;0.73;;;;;;;5.79;86.12;101039.81;5057464;28;20466;-70
2023/11/23 04:06:03;;;;;;;4.70;1.40;;;;;;;5.92;86.02;101033.22;5057357;28;20521;-70
2023/11/23 04:08:31;;;;;;;2.23;0.67;;;;;;;5.91;85.78;101031.56;5057042;28;20464;-70
2023/11/23 04:10:58;;;;;;;2.67;0.60;;;;;;;5.87;86.78;101040.41;5057614;28;20524;-70
2023/11/23 04:13:25;;;;;;;2.90;1.23;;;;;;;5.91;87.13;101033.44;5057146;28;20546;-70
2023/11/23 04:15:52;;;;;;;1.90;0.50;;;;;;;5.96;87.25;101030.81;5057149;28;20485;-70
2023/11/23 04:18:18;;;;;;;2.77;0.87;;;;;;;5.98;87.50;101034.09;5057232;28;20870;-71
2023/11/23 04:20:45;;;;;;;2.10;0.63;;;;;;;6.03;87.66;101034.09;5057005;28;20441;-70
2023/11/23 04:23:12;;;;;;;1.90;0.53;;;;;;;6.03;87.99;101024.16;5056618;28;20444;-70
2023/11/23 04:25:40;;;;;;;4.50;0.90;;;;;;;6.00;88.85;101029.25;5057293;28;20439;-70
2023/11/23 04:28:06;;;;;;;3.13;1.30;;;;;;;5.97;89.24;101016.31;5056748;28;20469;-70
2023/11/23 04:30:33;;;;;;;2.20;0.80;;;;;;;6.11;89.18;101003.22;5057292;28;20441;-70
2023/11/23 04:33:00;;;;;;;2.20;0.80;;;;;;;6.13;89.49;101018.03;5057014;28;20512;-70
2023/11/23 04:35:27;;;;;;;2.20;0.70;;;;;;;6.17;89.44;101013.75;5056763;28;20485;-70
2023/11/23 04:37:54;;;;;;;2.07;0.73;;;;;;;6.18;89.52;101009.97;5056693;28;20903;-70
2023/11/23 04:40:21;;;;;;;1.90;0.50;;;;;;;6.16;90.40;101005.94;5056472;28;20442;-70
2023/11/23 04:42:49;;;;;;;4.17;0.73;;;;;;;6.12;91.32;100997.59;5056938;28;20438;-69
2023/11/23 04:45:16;;;;;;;2.20;0.90;;;;;;;6.22;91.21;101004.88;5056539;28;21033;-69
2023/11/23 04:47:43;;;;;;;1.80;0.50;;;;;;;6.24;91.33;101002.72;5056154;28;20470;-69
2023/11/23 04:50:10;;;;;;;1.90;0.50;;;;;;;6.28;91.75;100993.88;5056329;28;20442;-69
2023/11/23 04:52:37;;;;;;;1.90;0.50;;;;;;;6.31;92.18;100993.38;5056066;28;20453;-69
2023/11/23 04:55:04;;;;;;;4.27;1.33;;;;;;;6.37;92.13;100991.50;5055912;28;20984;-69
2023/11/23 04:57:31;;;;;;;2.80;0.93;;;;;;;6.43;92.21;100989.66;5056246;28;20490;-69
2023/11/23 04:59:59;;;;;;;2.47;0.77;;;;;;;6.39;92.76;100983.19;5054888;28;20454;-69
2023/11/23 05:02:26;;;;;;;3.47;1.07;;;;;;;6.45;92.78;100976.75;5056673;28;20484;-70
2023/11/23 05:04:53;;;;;;;2.30;0.80;;;;;;;6.49;93.12;100972.44;5056588;28;20465;-70
2023/11/23 05:07:19;;;;;;;3.00;1.00;;;;;;;6.53;93.08;100968.97;5056015;28;20529;-71
2023/11/23 05:09:46;;;;;;;2.43;0.70;;;;;;;6.47;94.03;100977.31;5056881;28;20454;-70
2023/11/23 05:12:13;;;;;;;2.97;1.00;;;;;;;6.54;94.16;100969.78;5056333;28;20541;-71
2023/11/23 05:14:39;;;;;;;2.10;0.53;;;;;;;6.51;94.67;100967.63;5055991;28;20467;-70
2023/11/23 05:17:07;;;;;;;2.97;0.90;;;;;;;6.54;95.10;100986.72;5056005;28;20478;-70
2023/11/23 05:19:35;;;;;;;4.50;1.00;;;;;;;6.58;95.53;100992.41;5056163;28;20872;-71
2023/11/23 05:22:02;;;;;;;4.63;1.20;;;;;;;6.62;95.67;100987.28;5056422;28;20500;-70
2023/11/23 05:24:28;;;;;;;3.20;1.40;;;;;;;6.65;95.97;100976.81;5055812;28;20462;-70
2023/11/23 05:26:55;;;;;;;3.00;1.23;;;;;;;6.70;96.11;100979.53;5055827;28;20442;-70
2023/11/23 05:29:22;;;;;;;2.20;0.73;;;;;;;6.72;97.07;100987.31;5055342;28;20442;-69
2023/11/23 05:31:49;;;;;;;3.60;1.20;;;;;;;6.71;97.24;100980.31;5056057;28;20470;-70
2023/11/23 05:34:17;;;;;;;3.10;1.60;;;;;;;6.67;97.88;100974.66;5055952;28;20540;-70
2023/11/23 05:36:44;;;;;;;2.50;1.10;;;;;;;6.68;98.33;100978.97;5055382;28;20486;-70
2023/11/23 05:39:11;;;;;;;3.40;1.03;;;;;;;6.73;98.22;100972.78;5054975;28;20882;-70
2023/11/23 05:41:38;;;;;;;2.40;1.10;;;;;;;6.74;98.78;100956.38;5055450;28;20454;-70
2023/11/23 05:44:04;;;;;;;5.40;1.30;;;;;;;6.73;99.40;100968.22;5055074;28;20939;-70
2023/11/23 05:46:31;;;;;;;2.30;0.90;;;;;;;6.81;99.18;100950.72;5055662;28;20830;-70
2023/11/23 05:48:58;;;;;;;2.20;0.90;;;;;;;6.87;99.42;100951.56;5055482;28;20473;-70
2023/11/23 05:51:27;;;;;;;4.40;1.10;;;;;;;6.92;99.43;100943.50;5055326;28;20534;-69
2023/11/23 05:53:54;;;;;;;3.23;1.00;;;;;;;6.93;99.68;100934.31;5054811;28;20472;-70
2023/11/23 05:56:21;;;;;;;3.13;1.30;;;;;;;6.90;100.00;100942.94;5054727;28;20478;-69
2023/11/23 05:58:47;;;;;;;3.30;1.30;;;;;;;6.95;100.00;100934.84;5054989;28;20446;-72
2023/11/23 06:01:14;;;;;;;3.50;1.33;;;;;;;7.00;100.00;100940.28;5054866;28;20473;-71
2023/11/23 06:03:41;;;;;;;2.40;0.93;;;;;;;6.98;100.00;100937.81;5054648;28;20501;-71
2023/11/23 06:06:09;;;;;;;2.37;0.83;;;;;;;7.08;100.00;100943.25;5054935;28;20446;-71
2023/11/23 06:08:37;;;;;;;3.37;1.47;;;;;;;7.09;100.00;100938.66;5054334;28;20482;-72
2023/11/23 06:11:04;;;;;;;8.13;1.60;;;;;;;7.14;100.00;100935.16;5054259;28;20529;-71
2023/11/23 06:13:31;;;;;;;3.30;1.63;;;;;;;7.17;100.00;100930.03;5054602;28;20832;-71
2023/11/23 06:15:57;;;;;;;4.70;1.50;;;;;;;7.20;100.00;100929.47;5054754;28;20864;-71
2023/11/23 06:18:24;;;;;;;2.20;0.97;;;;;;;7.23;100.00;100926.25;5054690;28;20442;-71
2023/11/23 06:20:51;;;;;;;3.50;1.40;;;;;;;7.23;100.00;100925.47;5054738;28;20537;-71
2023/11/23 06:23:17;;;;;;;2.80;1.53;;;;;;;7.25;100.00;100921.41;5054977;28;20517;-71
2023/11/23 06:25:45;;;;;;;2.60;0.93;;;;;;;7.30;100.00;100929.50;5054751;28;20466;-71
2023/11/23 06:28:12;;;;;;;2.90;0.87;;;;;;;7.31;100.00;100920.34;5054728;28;20474;-71
2023/11/23 06:30:39;;;;;;;3.00;1.10;;;;;;;7.32;100.00;100913.84;5054580;28;20470;-72
2023/11/23 06:33:06;;;;;;;4.30;1.90;;;;;;;7.40;100.00;100922.47;5054522;28;20495;-71
2023/11/23 06:35:32;;;;;;;4.67;1.63;;;;;;;7.44;100.00;100918.16;5054328;28;20875;-70
2023/11/23 06:37:59;;;;;;;4.47;2.03;;;;;;;7.47;100.00;100913.03;5055163;28;20484;-71
2023/11/23 06:40:26;;;;;;;3.53;1.87;;;;;;;7.44;100.00;100907.38;5054753;28;20526;-70
2023/11/23 06:42:53;;;;;;;4.83;1.77;;;;;;;7.36;100.00;100905.25;5054734;28;20445;-71
2023/11/23 06:45:19;;;;;;;5.70;1.47;;;;;;;7.36;100.00;100897.16;5054799;28;20573;-70
2023/11/23 06:47:46;;;;;;;3.47;1.83;;;;;;;7.32;100.00;100895.00;5054265;28;20476;-71
2023/11/23 06:50:14;;;;;;;3.23;1.47;;;;;;;7.32;100.00;100894.19;5054591;28;20446;-71
2023/11/23 06:52:40;;;;;;;3.87;1.97;;;;;;;7.35;100.00;100896.34;5053920;28;20934;-70
2023/11/23 06:55:09;;;;;;;5.10;2.60;;;;;;;7.29;100.00;100882.06;5053947;28;20523;-71
2023/11/23 06:57:39;;;;;;;3.23;1.60;;;;;;;7.23;100.00;100877.75;5053890;28;20482;-70
2023/11/23 07:00:16;;;;;;;4.30;1.40;;;;;;;7.18;100.00;100877.78;5053937;28;20441;-70
2023/11/23 07:02:42;;;;;;;2.57;1.00;;;;;;;7.23;100.00;100863.50;5054038;28;20433;-71
2023/11/23 07:05:11;;;;;;;4.30;1.27;;;;;;;7.21;100.00;100877.22;5053446;28;20999;-70
2023/11/23 07:07:37;;;;;;;3.27;1.37;;;;;;;7.18;100.00;100871.59;5093341;22;20530;-66
2023/11/23 07:10:06;;;;;;;3.40;1.63;;;;;;;7.22;100.00;100864.56;5053872;28;20430;-65
2023/11/23 07:12:32;;;;;;;3.63;1.77;;;;;;;7.22;100.00;100862.69;5054032;28;20453;-65
2023/11/23 07:14:59;;;;;;;3.20;1.40;;;;;;;7.23;100.00;100858.09;5053296;28;20997;-65
2023/11/23 07:17:27;;;;;;;4.50;2.37;;;;;;;7.23;100.00;100863.50;5053847;28;20513;-64
2023/11/23 07:19:54;;;;;;;3.30;1.30;;;;;;;7.21;100.00;100839.50;5054106;28;20540;-65
2023/11/23 07:22:21;;;;;;;2.33;0.90;;;;;;;7.20;100.00;100843.28;5053384;28;20857;-66
2023/11/23 07:24:48;;;;;;;2.57;1.20;;;;;;;7.27;100.00;100827.66;5053628;28;20875;-65
2023/11/23 07:27:15;;;;;;;3.47;1.73;;;;;;;7.30;100.00;100827.13;5054228;28;20449;-65
2023/11/23 07:29:41;;;;;;;2.90;1.00;;;;;;;7.31;100.00;100834.13;5053223;28;20442;-65
2023/11/23 07:32:08;;;;;;;7.80;2.00;;;;;;;7.29;100.00;100830.88;5053559;28;20525;-65
2023/11/23 07:34:37;;;;;;;3.07;1.17;;;;;;;7.27;100.00;100822.25;5053434;28;20472;-66
2023/11/23 07:37:04;;;;;;;3.70;1.63;;;;;;;7.27;100.00;100827.66;5053437;28;20549;-66
2023/11/23 07:39:31;;;;;;;3.17;1.30;;;;;;;7.26;100.00;100838.69;5053415;28;20438;-65
2023/11/23 07:41:57;;;;;;;2.33;0.90;;;;;;;7.39;100.00;100829.22;5053165;28;20937;-65
2023/11/23 07:44:25;;;;;;;2.13;0.87;;;;;;;7.40;100.00;100825.47;5053774;28;20557;-65
2023/11/23 07:46:52;;;;;;;2.93;1.50;;;;;;;7.45;100.00;100828.94;5053425;28;20437;-66
2023/11/23 07:49:18;;;;;;;3.00;1.10;;;;;;;7.42;100.00;100807.94;5053515;28;20883;-66
2023/11/23 07:51:46;;;;;;;2.43;1.10;;;;;;;7.31;100.00;100817.94;5053309;28;20481;-66
2023/11/23 07:54:13;;;;;;;2.97;0.90;;;;;;;7.28;100.00;100818.47;5053123;28;21039;-66
2023/11/23 07:56:40;;;;;;;3.57;1.73;;;;;;;7.24;100.00;100801.25;5053331;28;20486;-65
2023/11/23 07:59:07;;;;;;;2.90;1.47;;;;;;;7.30;100.00;100808.25;5053219;28;20432;-65
2023/11/23 08:01:34;;;;;;;3.47;1.70;;;;;;;7.29;100.00;100787.75;5053371;28;20466;-66
2023/11/23 08:04:02;;;;;;;2.73;1.20;;;;;;;7.25;100.00;100794.78;5052905;28;20992;-65
2023/11/23 08:06:29;;;;;;;2.70;1.47;;;;;;;7.31;100.00;100782.13;5053205;28;20512;-65
2023/11/23 08:08:57;;;;;;;2.30;0.87;;;;;;;7.30;100.00;100797.47;5052846;28;20889;-65
2023/11/23 08:11:24;;;;;;;2.40;0.80;;;;;;;7.31;100.00;100790.19;5053080;28;20523;-65
2023/11/23 08:13:50;;;;;;;5.00;1.50;;;;;;;7.26;100.00;100782.94;5052814;28;20874;-65
2023/11/23 08:16:18;;;;;;;2.30;0.73;;;;;;;7.26;100.00;100777.56;5053004;28;20517;-65
2023/11/23 08:18:45;;;;;;;4.93;1.53;;;;;;;7.24;100.00;100762.72;5052706;28;20485;-65
2023/11/23 08:21:12;;;;;;;3.03;1.57;;;;;;;7.21;100.00;100779.44;5053106;28;20533;-66
2023/11/23 08:23:39;;;;;;;2.33;0.87;;;;;;;7.24;100.00;100760.03;5052984;28;20480;-66
2023/11/23 08:26:10;;;;;;;3.33;1.10;;;;;;;7.21;100.00;100766.75;5052916;28;20434;-66
2023/11/23 08:28:37;;;;;;;3.60;1.50;;;;;;;7.22;100.00;100754.94;5052961;28;20502;-65
2023/11/23 08:31:04;;;;;;;2.90;1.10;;;;;;;7.34;100.00;100750.00;5052952;28;20877;-66
2023/11/23 08:33:31;;;;;;;2.80;0.90;;;;;;;7.35;100.00;100745.47;5053696;28;20561;-66
2023/11/23 08:35:58;;;;;;;3.80;2.23;;;;;;;7.28;100.00;100739.53;5056402;28;20922;-66
2023/11/23 08:38:27;;;;;;;2.70;1.00;;;;;;;7.29;100.00;100744.66;5056471;28;20485;-65
2023/11/23 08:40:53;;;;;;;3.43;1.67;;;;;;;7.32;100.00;100730.63;5056742;28;20445;-66
2023/11/23 08:43:21;;;;;;;2.73;1.17;;;;;;;7.42;100.00;100731.69;5056587;28;20466;-65
2023/11/23 08:45:48;;;;;;;4.47;1.73;;;;;;;7.47;100.00;100726.25;5056158;28;20438;-66
2023/11/23 08:48:15;;;;;;;5.03;1.70;;;;;;;7.50;100.00;100734.59;5056344;28;20442;-66
2023/11/23 08:50:42;;;;;;;2.60;0.90;;;;;;;7.58;100.00;100727.84;5056795;28;20446;-66
2023/11/23 08:53:09;;;;;;;4.00;1.57;;;;;;;7.66;100.00;100723.72;5056673;28;20434;-66
2023/11/23 08:55:36;;;;;;;2.80;0.83;;;;;;;7.72;100.00;100719.94;5056156;28;20446;-67
2023/11/23 08:58:03;;;;;;;3.17;1.30;;;;;;;7.69;100.00;100721.28;5055886;28;20492;-66
2023/11/23 09:00:32;;;;;;;4.77;1.80;;;;;;;7.74;100.00;100707.78;5056288;28;20442;-66
2023/11/23 09:02:59;;;;;;;5.00;2.30;;;;;;;7.81;100.00;100697.50;5056130;28;20441;-66
2023/11/23 09:05:25;;;;;;;3.60;1.13;;;;;;;7.84;100.00;100701.53;5055987;28;20831;-66
2023/11/23 09:07:53;;;;;;;4.10;1.40;;;;;;;7.91;100.00;100696.63;5055965;28;20540;-66
2023/11/23 09:10:23;;;;;;;2.73;1.23;;;;;;;7.97;100.00;100694.69;5056269;28;20905;-66
2023/11/23 09:12:50;;;;;;;3.00;1.40;;;;;;;8.00;100.00;100694.94;5056227;28;20467;-66
2023/11/23 09:15:17;;;;;;;3.17;0.83;;;;;;;8.01;100.00;100690.34;5056140;28;20531;-66
2023/11/23 09:17:46;;;;;;;2.47;0.93;;;;;;;8.01;100.00;100695.72;5055772;28;20493;-66
2023/11/23 09:20:13;;;;;;;4.50;2.00;;;;;;;8.04;100.00;100687.91;5055620;28;20473;-66
2023/11/23 09:22:39;;;;;;;3.87;1.47;;;;;;;8.08;100.00;100672.75;5055913;28;20513;-66
2023/11/23 09:25:08;;;;;;;3.30;1.23;;;;;;;8.05;100.00;100677.91;5056232;28;20486;-66
2023/11/23 09:27:35;;;;;;;3.60;1.60;;;;;;;8.08;100.00;100663.88;5056460;28;20435;-66
2023/11/23 09:30:04;;;;;;;2.97;1.30;;;;;;;8.14;100.00;100654.63;5056076;28;20446;-66
2023/11/23 09:32:33;;;;;;;3.97;1.70;;;;;;;8.08;100.00;100659.28;5055615;28;20426;-66
2023/11/23 09:35:01;;;;;;;4.73;1.80;;;;;;;8.11;100.00;100662.50;5055626;28;20561;-66
2023/11/23 09:37:28;;;;;;;2.50;0.90;;;;;;;8.12;100.00;100658.72;5055554;28;20509;-66
2023/11/23 09:39:55;;;;;;;3.80;1.80;;;;;;;8.12;100.00;100648.72;5055638;28;20948;-66
2023/11/23 09:42:22;;;;;;;3.80;0.90;;;;;;;8.14;100.00;100641.13;5055495;28;20994;-66
2023/11/23 09:44:54;;;;;;;4.10;1.53;;;;;;;8.22;100.00;100629.75;5054490;28;20898;-66
2023/11/23 09:47:22;;;;;;;4.73;1.80;;;;;;;8.26;100.00;100622.69;5055200;28;20913;-65
2023/11/23 09:49:49;;;;;;;2.90;1.40;;;;;;;8.29;100.00;100621.31;5055272;28;20496;-66
2023/11/23 09:52:17;;;;;;;3.20;1.30;;;;;;;8.31;100.00;100619.94;5055589;28;20474;-66
2023/11/23 09:54:44;;;;;;;2.60;0.77;;;;;;;8.39;100.00;100621.25;5058201;28;20468;-65
2023/11/23 09:57:12;;;;;;;3.50;1.20;;;;;;;8.40;100.00;100622.84;5059455;28;20506;-65
2023/11/23 09:59:38;;;;;;;3.50;1.73;;;;;;;8.44;100.00;100612.28;5058787;28;20534;-65
2023/11/23 10:02:09;;;;;;;3.40;1.23;;;;;;;8.45;100.00;100619.28;5058634;28;20450;-66
2023/11/23 10:04:36;;;;;;;4.20;2.00;;;;;;;8.49;100.00;100612.25;5055609;28;20520;-65
2023/11/23 10:07:05;;;;;;;3.20;1.27;;;;;;;8.48;100.00;100616.84;5054927;28;20499;-65
2023/11/23 10:09:35;;;;;;;7.03;1.50;;;;;;;8.45;100.00;100608.50;5054606;28;20489;-65
2023/11/23 10:12:03;;;;;;;2.57;1.00;;;;;;;8.46;100.00;100600.13;5055315;28;20513;-65
2023/11/23 10:14:29;;;;;;;2.47;0.97;;;;;;;8.45;100.00;100589.59;5054799;28;20546;-65
2023/11/23 10:16:56;;;;;;;3.97;1.60;;;;;;;8.38;100.00;100584.56;5054330;28;20533;-65
2023/11/23 10:19:24;;;;;;;3.50;1.20;;;;;;;8.37;100.00;100569.47;5054492;28;20945;-65
2023/11/23 10:21:50;;;;;;;4.13;1.40;;;;;;;8.36;100.00;100573.19;5054711;28;20960;-65
2023/11/23 10:24:18;;;;;;;2.80;1.33;;;;;;;8.36;100.00;100573.19;5054446;28;20485;-65
2023/11/23 10:26:46;;;;;;;4.17;1.60;;;;;;;8.34;100.00;100560.00;5055011;28;20464;-65
2023/11/23 10:29:13;;;;;;;4.60;2.17;;;;;;;8.40;100.00;100551.88;5054507;28;20934;-65
2023/11/23 10:31:40;;;;;;;2.90;1.00;;;;;;;8.34;100.00;100535.72;5054502;28;20445;-65
2023/11/23 10:34:08;;;;;;;4.03;1.87;;;;;;;8.32;100.00;100529.81;5054560;28;20954;-65
2023/11/23 10:36:38;;;;;;;2.70;1.10;;;;;;;8.29;100.00;100533.06;5054447;28;20446;-65
2023/11/23 10:39:09;;;;;;;2.63;0.83;;;;;;;8.26;100.00;100528.25;5054666;28;20481;-65
2023/11/23 10:41:37;;;;;;;3.07;1.30;;;;;;;8.25;100.00;100507.75;5054889;28;20462;-65
2023/11/23 10:44:08;;;;;;;3.53;1.40;;;;;;;8.20;100.00;100510.53;5053832;28;20463;-66
2023/11/23 10:46:38;;;;;;;3.20;0.90;;;;;;;8.18;100.00;100503.78;5053809;28;20435;-65
2023/11/23 10:49:06;;;;;;;5.13;2.10;;;;;;;8.15;100.00;100493.59;5054154;28;20426;-65
2023/11/23 10:51:34;;;;;;;4.03;1.13;;;;;;;8.15;100.00;100499.78;5054158;28;20528;-65
2023/11/23 10:54:01;;;;;;;3.97;1.30;;;;;;;8.14;100.00;100487.38;5053956;28;20542;-66
2023/11/23 10:56:30;;;;;;;2.90;1.30;;;;;;;8.20;100.00;100480.84;5053927;28;20797;-66
2023/11/23 10:59:01;;;;;;;3.07;1.00;;;;;;;8.23;100.00;100480.25;5053539;28;20493;-66
2023/11/23 11:01:31;;;;;;;2.60;1.17;;;;;;;8.25;100.00;100475.38;5054113;28;20447;-65
2023/11/23 11:03:58;;;;;;;8.43;2.27;;;;;;;8.31;100.00;100468.81;5053868;28;20979;-65
2023/11/23 11:06:24;;;;;;;4.37;1.70;;;;;;;8.31;100.00;100460.72;5054292;28;20544;-65
2023/11/23 11:08:51;;;;;;;4.10;1.73;;;;;;;8.40;100.00;100471.72;5053474;28;20442;-65
2023/11/23 11:11:21;;;;;;;3.93;1.50;;;;;;;8.43;100.00;100470.34;5054142;28;20508;-65
2023/11/23 11:13:48;;;;;;;2.87;1.37;;;;;;;8.47;100.00;100472.16;5053378;28;20505;-65
2023/11/23 11:16:15;;;;;;;3.80;1.83;;;;;;;8.49;100.00;100469.19;5053419;28;20476;-65
2023/11/23 11:18:52;;;;;;;2.40;0.83;;;;;;;8.54;100.00;100469.94;5053939;28;20482;-65
2023/11/23 11:21:20;;;;;;;3.30;1.10;;;;;;;8.53;100.00;100462.91;5053843;28;20453;-65
2023/11/23 11:23:50;;;;;;;3.47;1.40;;;;;;;8.61;100.00;100456.06;5053955;28;20454;-65
2023/11/23 11:26:18;;;;;;;2.80;1.10;;;;;;;8.64;100.00;100449.28;5053710;28;20550;-65
2023/11/23 11:28:54;;;;;;;4.40;1.43;;;;;;;8.76;100.00;100449.63;5053186;28;20476;-66